createdAt,value
2023-01-04T00:00:10.187Z,97757.38
2023-01-04T00:02:38.628Z,97765.59
2023-01-04T00:05:07.949Z,97731.25
2023-01-04T00:07:36.289Z,97728.72
2023-01-04T00:10:06.432Z,97765.25
2023-01-04T00:12:37.119Z,97771.38
2023-01-04T00:15:08.528Z,97724.00
2023-01-04T00:17:37.391Z,97747.47
2023-01-04T00:20:06.471Z,97705.09
2023-01-04T00:22:35.469Z,97750.97
2023-01-04T00:25:03.938Z,97754.34
2023-01-04T00:27:32.146Z,97743.63
2023-01-04T00:30:00.361Z,97753.50
2023-01-04T00:32:30.020Z,97760.38
2023-01-04T00:34:58.241Z,97734.75
2023-01-04T00:37:26.453Z,97744.78
2023-01-04T00:39:54.752Z,97716.50
2023-01-04T00:42:23.003Z,97653.56
2023-01-04T00:44:51.182Z,97702.91
2023-01-04T00:47:19.657Z,97699.72
2023-01-04T00:49:49.231Z,97724.94
2023-01-04T00:52:17.867Z,97688.53
2023-01-04T00:54:46.390Z,97729.56
2023-01-04T00:57:14.621Z,97660.69
2023-01-04T00:59:42.869Z,97659.53
2023-01-04T01:02:11.226Z,97697.91
2023-01-04T01:04:39.555Z,97714.81
2023-01-04T01:07:13.668Z,97715.56
2023-01-04T01:09:41.887Z,97673.28
2023-01-04T01:12:10.121Z,97658.63
2023-01-04T01:14:39.676Z,97671.94
2023-01-04T01:17:07.967Z,97702.56
2023-01-04T01:19:36.440Z,97648.25
2023-01-04T01:22:04.701Z,97725.53
2023-01-04T01:24:34.226Z,97690.19
2023-01-04T01:27:03.916Z,97664.81
2023-01-04T01:29:32.323Z,97695.41
2023-01-04T01:32:00.625Z,97701.66
2023-01-04T01:34:28.896Z,97712.03
2023-01-04T01:36:57.157Z,97687.16
2023-01-04T01:39:25.368Z,97692.28
2023-01-04T01:41:54.966Z,97729.03
2023-01-04T01:44:59.698Z,97665.75
2023-01-04T01:47:37.704Z,97683.31
2023-01-04T01:50:21.524Z,97741.31
2023-01-04T01:52:51.359Z,97680.28
2023-01-04T01:55:19.744Z,97740.03
2023-01-04T01:57:51.832Z,97662.88
2023-01-04T02:00:23.735Z,97733.28
2023-01-04T02:03:00.810Z,97685.59
2023-01-04T02:05:31.050Z,97665.28
2023-01-04T02:08:00.414Z,97689.31
2023-01-04T02:10:28.727Z,97666.81
2023-01-04T02:13:05.692Z,97682.13
2023-01-04T02:15:48.713Z,97762.22
2023-01-04T02:18:23.289Z,97827.44
2023-01-04T02:20:58.617Z,97690.13
2023-01-04T02:24:19.239Z,97699.44
2023-01-04T02:27:40.044Z,97696.72
2023-01-04T02:31:10.827Z,97725.00
2023-01-04T02:33:50.514Z,97652.31
2023-01-04T02:36:25.679Z,97701.66
2023-01-04T02:39:06.577Z,97697.44
2023-01-04T02:41:39.629Z,97713.94
2023-01-04T02:44:34.940Z,97682.13
2023-01-04T02:47:08.134Z,97662.09
2023-01-04T02:50:04.267Z,97678.38
2023-01-04T02:52:34.391Z,97691.16
2023-01-04T02:55:06.288Z,97723.19
2023-01-04T02:57:49.478Z,97627.78
2023-01-04T03:00:35.852Z,97653.59
2023-01-04T03:03:36.733Z,97647.03
2023-01-04T03:06:17.011Z,97649.97
2023-01-04T03:08:56.775Z,97637.91
2023-01-04T03:11:50.244Z,97661.31
2023-01-04T03:14:31.907Z,97635.38
2023-01-04T03:17:03.396Z,97668.31
2023-01-04T03:19:54.029Z,97653.41
2023-01-04T03:22:50.888Z,97617.88
2023-01-04T03:25:43.665Z,97619.03
2023-01-04T03:28:32.944Z,97651.69
2023-01-04T03:31:36.129Z,97626.97
2023-01-04T03:34:21.936Z,97619.72
2023-01-04T03:40:31.495Z,97646.88
2023-01-04T03:43:25.101Z,97621.91
2023-01-04T03:46:17.076Z,97661.97
2023-01-04T03:48:50.005Z,97625.69
2023-01-04T03:51:24.128Z,97551.88
2023-01-04T03:53:58.648Z,97552.03
2023-01-04T03:56:29.781Z,97606.50
2023-01-04T03:58:58.458Z,97614.53
2023-01-04T04:01:29.124Z,97596.88
2023-01-04T04:04:14.801Z,97575.88
2023-01-04T04:07:00.835Z,97628.03
2023-01-04T04:09:29.095Z,97579.00
2023-01-04T04:11:59.131Z,97577.53
2023-01-04T04:14:27.566Z,97579.84
2023-01-04T04:16:55.882Z,97569.13
2023-01-04T04:19:24.086Z,97586.19
2023-01-04T04:21:52.381Z,97584.84
2023-01-04T04:24:24.343Z,97610.81
2023-01-04T04:26:54.453Z,97577.31
2023-01-04T04:29:24.996Z,97572.81
2023-01-04T04:31:53.762Z,97557.59
2023-01-04T04:34:21.989Z,97551.75
2023-01-04T04:36:50.223Z,97571.81
2023-01-04T04:39:18.665Z,97563.44
2023-01-04T04:41:45.893Z,97518.44
2023-01-04T04:44:16.254Z,97587.56
2023-01-04T04:46:46.836Z,97578.53
2023-01-04T04:49:16.257Z,97518.59
2023-01-04T04:51:46.306Z,97547.38
2023-01-04T04:54:19.952Z,97497.75
2023-01-04T04:56:48.849Z,97550.06
2023-01-04T04:59:17.764Z,97538.69
2023-01-04T05:01:48.292Z,97531.63
2023-01-04T05:04:20.976Z,97520.69
2023-01-04T05:06:50.841Z,97521.88
2023-01-04T05:09:19.097Z,97560.94
2023-01-04T05:12:04.803Z,97518.66
2023-01-04T05:14:33.013Z,97545.19
2023-01-04T05:17:02.660Z,97543.69
2023-01-04T05:19:31.101Z,97543.84
2023-01-04T05:21:59.287Z,97577.56
2023-01-04T05:24:27.512Z,97548.84
2023-01-04T05:26:55.729Z,97565.56
2023-01-04T05:29:41.710Z,97533.19
2023-01-04T05:32:11.350Z,97561.03
2023-01-04T05:34:39.734Z,97566.75
2023-01-04T05:37:07.935Z,97564.75
2023-01-04T05:39:36.158Z,97536.25
2023-01-04T05:42:22.027Z,97558.78
2023-01-04T05:44:50.157Z,97550.88
2023-01-04T05:47:19.687Z,97509.97
2023-01-04T05:49:47.928Z,97520.66
2023-01-04T05:52:16.410Z,97493.28
2023-01-04T05:54:44.650Z,97561.41
2023-01-04T05:57:13.090Z,97495.03
2023-01-04T05:59:42.261Z,97532.16
2023-01-04T06:02:17.557Z,97532.00
2023-01-04T06:04:51.485Z,97482.66
2023-01-04T06:07:23.641Z,97525.59
2023-01-04T06:09:52.932Z,97568.06
2023-01-04T06:12:21.340Z,97544.63
2023-01-04T06:14:49.597Z,97494.88
2023-01-04T06:17:17.989Z,97428.38
2023-01-04T06:19:47.699Z,97553.72
2023-01-04T06:22:15.886Z,97493.88
2023-01-04T06:24:44.104Z,97495.00
2023-01-04T06:27:12.798Z,97552.25
2023-01-04T06:29:40.991Z,97473.31
2023-01-04T06:32:09.209Z,97533.66
2023-01-04T06:34:37.398Z,97510.56
2023-01-04T06:37:07.043Z,97535.75
2023-01-04T06:39:35.240Z,97507.31
2023-01-04T06:42:06.704Z,97491.56
2023-01-04T06:44:35.528Z,97499.06
2023-01-04T06:47:03.759Z,97454.34
2023-01-04T06:49:32.001Z,97479.59
2023-01-04T06:52:00.287Z,97423.81
2023-01-04T06:54:30.151Z,97494.53
2023-01-04T06:56:58.361Z,97537.53
2023-01-04T06:59:26.556Z,97549.78
2023-01-04T07:01:58.453Z,97459.56
2023-01-04T07:04:27.295Z,97427.25
2023-01-04T07:06:55.913Z,97473.56
2023-01-04T07:09:24.047Z,97440.69
2023-01-04T07:11:53.600Z,97462.50
2023-01-04T07:14:21.816Z,97506.50
2023-01-04T07:16:50.371Z,97508.81
2023-01-04T07:19:18.765Z,97512.44
2023-01-04T07:21:47.001Z,97442.00
2023-01-04T07:24:15.207Z,97476.03
2023-01-04T07:26:43.403Z,97418.13
2023-01-04T07:29:16.814Z,97483.19
2023-01-04T07:31:48.024Z,97466.22
2023-01-04T07:34:18.718Z,97483.47
2023-01-04T07:36:47.960Z,97505.56
2023-01-04T07:39:17.248Z,97524.69
2023-01-04T07:41:46.445Z,97465.81
2023-01-04T07:44:21.552Z,97510.34
2023-01-04T07:46:49.975Z,97519.91
2023-01-04T07:49:19.270Z,97482.63
2023-01-04T07:51:48.931Z,97454.09
2023-01-04T07:54:18.272Z,97478.56
2023-01-04T07:56:48.538Z,97455.25
2023-01-04T07:59:20.675Z,97448.69
2023-01-04T08:01:50.900Z,97465.59
2023-01-04T08:04:23.517Z,97358.25
2023-01-04T08:06:52.180Z,97490.78
2023-01-04T08:09:20.826Z,97439.19
2023-01-04T08:11:49.059Z,97426.88
2023-01-04T08:14:17.251Z,97446.91
2023-01-04T08:16:46.770Z,97423.06
2023-01-04T08:19:18.131Z,97462.44
2023-01-04T08:21:46.715Z,97443.56
2023-01-04T08:24:21.040Z,97470.16
2023-01-04T08:26:49.282Z,97475.16
2023-01-04T08:29:18.033Z,97429.91
2023-01-04T08:31:47.632Z,97454.91
2023-01-04T08:34:15.845Z,97203.28
2023-01-04T08:36:49.554Z,97448.03
2023-01-04T08:39:18.526Z,97402.03
2023-01-04T08:41:59.409Z,97439.44
2023-01-04T08:44:31.412Z,97424.00
2023-01-04T08:47:01.046Z,97422.97
2023-01-04T08:49:29.313Z,97475.22
2023-01-04T08:51:57.517Z,97371.19
2023-01-04T08:54:25.714Z,97360.41
2023-01-04T08:56:53.998Z,97337.78
2023-01-04T08:59:22.208Z,97411.41
2023-01-04T09:01:50.504Z,97362.94
2023-01-04T09:04:26.007Z,97372.81
2023-01-04T09:06:54.960Z,97366.75
2023-01-04T09:09:23.188Z,97406.88
2023-01-04T09:11:51.371Z,97348.34
2023-01-04T09:14:19.603Z,97403.97
2023-01-04T09:16:47.822Z,97391.75
2023-01-04T09:19:21.674Z,97369.91
2023-01-04T09:21:51.896Z,97437.00
2023-01-04T09:24:20.353Z,97446.47
2023-01-04T09:26:49.036Z,97383.88
2023-01-04T09:29:17.555Z,97380.50
2023-01-04T09:31:46.325Z,97402.06
2023-01-04T09:34:17.045Z,97414.00
2023-01-04T09:36:47.617Z,97416.38
2023-01-04T09:39:23.090Z,97420.81
2023-01-04T09:41:58.891Z,97400.44
2023-01-04T09:47:38.848Z,97346.84
2023-01-04T09:50:15.102Z,97407.75
2023-01-04T09:52:57.717Z,97375.47
2023-01-04T09:55:37.462Z,97403.28
2023-01-04T09:58:24.226Z,97285.88
2023-01-04T10:00:59.608Z,97362.56
2023-01-04T10:03:33.001Z,97383.22
2023-01-04T10:06:03.708Z,97376.31
2023-01-04T10:08:32.355Z,97364.09
2023-01-04T10:11:20.415Z,97384.25
2023-01-04T10:14:05.157Z,97380.59
2023-01-04T10:23:00.114Z,97362.94
2023-01-04T10:25:40.545Z,97339.66
2023-01-04T10:28:29.758Z,97279.66
2023-01-04T10:31:40.433Z,97342.63
2023-01-04T10:34:06.055Z,97296.41
2023-01-04T10:36:34.233Z,97282.50
2023-01-04T10:39:05.671Z,97343.59
2023-01-04T10:41:38.649Z,97296.03
2023-01-04T10:44:17.419Z,97246.09
2023-01-04T10:46:57.525Z,97243.91
2023-01-04T10:49:36.948Z,97287.34
2023-01-04T10:52:11.025Z,97334.53
2023-01-04T10:54:44.726Z,97265.53
2023-01-04T10:57:19.833Z,97277.34
2023-01-04T10:59:55.055Z,97322.38
2023-01-04T11:02:34.866Z,97297.66
2023-01-04T11:05:13.199Z,97320.47
2023-01-04T11:07:52.806Z,97276.78
2023-01-04T11:10:26.331Z,97251.69
2023-01-04T11:12:54.670Z,97326.13
2023-01-04T11:15:24.459Z,97244.75
2023-01-04T11:17:53.567Z,97277.69
2023-01-04T11:20:26.736Z,97196.34
2023-01-04T11:23:00.321Z,97263.00
2023-01-04T11:25:36.271Z,97313.41
2023-01-04T11:28:16.801Z,97108.75
2023-01-04T11:30:56.545Z,97186.75
2023-01-04T11:33:26.415Z,97273.03
2023-01-04T11:35:58.886Z,97310.19
2023-01-04T11:38:30.331Z,97284.47
2023-01-04T11:41:01.791Z,97234.66
2023-01-04T11:43:31.637Z,97338.53
2023-01-04T11:46:05.155Z,97293.69
2023-01-04T11:48:40.696Z,97273.44
2023-01-04T11:51:20.724Z,97250.88
2023-01-04T11:53:59.777Z,97209.84
2023-01-04T11:56:30.199Z,97216.44
2023-01-04T11:59:20.974Z,97261.72
2023-01-04T12:02:50.571Z,97218.66
2023-01-04T12:05:24.579Z,97226.16
2023-01-04T12:07:58.397Z,97191.38
2023-01-04T12:10:28.972Z,97226.50
2023-01-04T12:12:58.050Z,97233.69
2023-01-04T12:15:35.650Z,97231.75
2023-01-04T12:18:12.185Z,97209.59
2023-01-04T12:20:40.406Z,97207.94
2023-01-04T12:23:15.184Z,97222.22
2023-01-04T12:25:47.149Z,97213.22
2023-01-04T12:28:34.965Z,97212.06
2023-01-04T12:31:35.157Z,97204.34
2023-01-04T12:34:43.422Z,97215.03
2023-01-04T12:37:13.876Z,97171.06
2023-01-04T12:39:45.653Z,97161.22
2023-01-04T12:42:28.221Z,97113.88
2023-01-04T12:45:22.762Z,97220.41
2023-01-04T12:48:13.025Z,97247.31
2023-01-04T12:51:37.242Z,97221.34
2023-01-04T12:54:31.967Z,97161.50
2023-01-04T12:57:25.345Z,97152.00
2023-01-04T12:59:59.087Z,97134.09
2023-01-04T13:02:29.523Z,97121.94
2023-01-04T13:05:43.677Z,97152.44
2023-01-04T13:07:52.566Z,97196.59
2023-01-04T13:10:30.175Z,97128.00
2023-01-04T13:13:36.224Z,97191.22
2023-01-04T13:16:18.610Z,97153.38
2023-01-04T13:18:50.385Z,97148.72
2023-01-04T13:21:28.904Z,97168.47
2023-01-04T13:24:01.939Z,97180.44
2023-01-04T13:26:40.619Z,97174.53
2023-01-04T13:29:22.139Z,97129.00
2023-01-04T13:31:55.361Z,97199.50
2023-01-04T13:34:28.476Z,97171.06
2023-01-04T13:37:15.009Z,97132.28
2023-01-04T13:39:47.864Z,97110.63
2023-01-04T13:42:24.916Z,97104.28
2023-01-04T13:45:35.386Z,97115.59
2023-01-04T13:48:10.467Z,97177.69
2023-01-04T13:50:44.067Z,97108.16
2023-01-04T13:53:22.099Z,97155.06
2023-01-04T13:55:56.463Z,97157.72
2023-01-04T13:58:27.268Z,97158.97
2023-01-04T14:00:59.960Z,97108.16
2023-01-04T14:03:37.121Z,97130.91
2023-01-04T14:06:26.554Z,97080.97
2023-01-04T14:09:06.593Z,97106.78
2023-01-04T14:12:07.266Z,97110.94
2023-01-04T14:14:46.121Z,97096.88
2023-01-04T14:17:24.639Z,97086.22
2023-01-04T14:19:55.748Z,97115.34
2023-01-04T14:22:42.190Z,97016.25
2023-01-04T14:25:56.127Z,97101.03
2023-01-04T14:28:41.855Z,97105.28
2023-01-04T14:31:30.426Z,97082.25
2023-01-04T14:33:58.917Z,97077.00
2023-01-04T14:36:30.079Z,97234.22
2023-01-04T14:39:19.509Z,97135.97
2023-01-04T14:41:57.541Z,97072.03
2023-01-04T14:44:30.849Z,97107.75
2023-01-04T14:47:03.947Z,97072.31
2023-01-04T14:49:32.140Z,97092.03
2023-01-04T14:52:02.323Z,97044.16
2023-01-04T14:54:31.852Z,97091.19
2023-01-04T14:57:00.649Z,96927.38
2023-01-04T14:59:30.566Z,97085.25
2023-01-04T15:01:59.435Z,97002.56
2023-01-04T15:04:32.518Z,97071.75
2023-01-04T15:07:02.368Z,97048.84
2023-01-04T15:09:31.451Z,97077.13
2023-01-04T15:11:59.893Z,97054.06
2023-01-04T15:14:29.465Z,97039.69
2023-01-04T15:16:57.632Z,97061.22
2023-01-04T15:19:25.884Z,97094.94
2023-01-04T15:21:54.103Z,97071.19
2023-01-04T15:24:22.595Z,97060.97
2023-01-04T15:26:50.759Z,97056.81
2023-01-04T15:29:18.982Z,97076.84
2023-01-04T15:31:48.623Z,97074.91
2023-01-04T15:34:18.025Z,97068.25
2023-01-04T15:36:46.346Z,97060.69
2023-01-04T15:39:15.646Z,97056.81
2023-01-04T15:42:01.453Z,96936.53
2023-01-04T15:44:29.674Z,97018.69
2023-01-04T15:47:00.019Z,97049.63
2023-01-04T15:49:30.937Z,97049.63
2023-01-04T15:51:59.312Z,97045.78
2023-01-04T15:54:28.405Z,97031.13
2023-01-04T15:56:56.900Z,97027.41
2023-01-04T15:59:25.688Z,97033.75
2023-01-04T16:01:54.126Z,97037.34
2023-01-04T16:04:24.003Z,97030.03
2023-01-04T16:06:52.174Z,97046.06
2023-01-04T16:09:20.503Z,97075.72
2023-01-04T16:12:06.555Z,96981.44
2023-01-04T16:14:34.763Z,97031.44
2023-01-04T16:17:02.995Z,97041.34
2023-01-04T16:19:34.136Z,97023.41
2023-01-04T16:22:02.572Z,97014.28
2023-01-04T16:25:09.254Z,97022.28
2023-01-04T16:27:18.959Z,97027.53
2023-01-04T16:29:47.184Z,97008.22
2023-01-04T16:32:15.376Z,97015.38
2023-01-04T16:34:45.121Z,97019.13
2023-01-04T16:37:13.342Z,97013.06
2023-01-04T16:42:29.879Z,97040.94
2023-01-04T16:44:58.069Z,97010.84
2023-01-04T16:47:26.267Z,96994.00
2023-01-04T16:49:55.959Z,97027.13
2023-01-04T16:52:27.136Z,96999.66
2023-01-04T16:54:55.417Z,97023.13
2023-01-04T16:57:23.979Z,96977.53
2023-01-04T16:59:52.278Z,96940.00
2023-01-04T17:02:20.662Z,97018.28
2023-01-04T17:04:54.426Z,97020.91
2023-01-04T17:07:24.056Z,97018.94
2023-01-04T17:09:52.213Z,97044.38
2023-01-04T17:17:59.822Z,97001.13
2023-01-04T17:20:27.983Z,97020.50
2023-01-04T17:22:57.530Z,96993.84
2023-01-04T17:25:25.763Z,97011.94
2023-01-04T17:27:54.012Z,96991.50
2023-01-04T17:30:22.224Z,96941.53
2023-01-04T17:32:50.435Z,97005.44
2023-01-04T17:35:18.752Z,96973.00
2023-01-04T17:37:46.945Z,96947.63
2023-01-04T17:40:22.587Z,96999.91
2023-01-04T17:42:51.487Z,96948.84
2023-01-04T17:45:19.853Z,97006.44
2023-01-04T17:47:48.248Z,96945.00
2023-01-04T17:50:18.049Z,97001.31
2023-01-04T17:52:47.522Z,96991.50
2023-01-04T17:55:17.711Z,97009.63
2023-01-04T17:57:46.307Z,96987.34
2023-01-04T18:00:16.028Z,96835.88
2023-01-04T18:02:44.978Z,97009.56
2023-01-04T18:05:13.525Z,96961.25
2023-01-04T18:07:41.671Z,96954.59
2023-01-04T18:10:20.747Z,96942.88
2023-01-04T18:12:56.421Z,96942.69
2023-01-04T18:15:26.306Z,96984.59
2023-01-04T18:17:54.464Z,96969.38
2023-01-04T18:20:25.568Z,96949.50
2023-01-04T18:22:53.812Z,96956.94
2023-01-04T18:25:22.041Z,96906.97
2023-01-04T18:27:50.303Z,96994.66
2023-01-04T18:30:20.514Z,96967.47
2023-01-04T18:32:48.687Z,96890.63
2023-01-04T18:35:17.017Z,96987.50
2023-01-04T18:37:46.339Z,96985.31
2023-01-04T18:40:14.740Z,96959.84
2023-01-04T18:42:48.209Z,96998.94
2023-01-04T18:45:17.162Z,96937.06
2023-01-04T18:47:48.015Z,96957.09
2023-01-04T18:50:17.139Z,96964.28
2023-01-04T18:52:45.620Z,96925.63
2023-01-04T18:55:15.205Z,96959.03
2023-01-04T18:57:43.510Z,96935.16
2023-01-04T19:00:13.688Z,96931.69
2023-01-04T19:02:42.088Z,96941.91
2023-01-04T19:05:13.448Z,96969.25
2023-01-04T19:07:41.693Z,96934.44
2023-01-04T19:10:10.615Z,96971.22
2023-01-04T19:12:39.019Z,96972.88
2023-01-04T19:15:10.142Z,96934.63
2023-01-04T19:17:38.753Z,96939.47
2023-01-04T19:20:08.690Z,96982.03
2023-01-04T19:22:38.209Z,96993.91
2023-01-04T19:25:08.041Z,96964.34
2023-01-04T19:27:36.526Z,96966.72
2023-01-04T19:30:06.351Z,96948.91
2023-01-04T19:32:34.600Z,96975.69
2023-01-04T19:35:02.937Z,96974.03
2023-01-04T19:37:31.226Z,96950.19
2023-01-04T19:40:00.834Z,96903.59
2023-01-04T19:42:29.067Z,96951.41
2023-01-04T19:44:58.073Z,96988.09
2023-01-04T19:47:26.272Z,96986.03
2023-01-04T19:49:54.443Z,96968.53
2023-01-04T19:52:22.618Z,96990.31
2023-01-04T19:54:50.825Z,96979.28
2023-01-04T19:57:20.391Z,96983.72
2023-01-04T19:59:48.639Z,96906.31
2023-01-04T20:02:16.983Z,97006.84
2023-01-04T20:04:45.382Z,96949.50
2023-01-04T20:07:13.640Z,96958.59
2023-01-04T20:09:42.005Z,96935.44
2023-01-04T20:12:10.184Z,96957.88
2023-01-04T20:14:39.896Z,96945.91
2023-01-04T20:17:08.383Z,96965.19
2023-01-04T20:19:36.678Z,96955.53
2023-01-04T20:22:04.832Z,96945.34
2023-01-04T20:24:33.257Z,96923.25
2023-01-04T20:27:01.488Z,96959.28
2023-01-04T20:29:29.687Z,96941.63
2023-01-04T20:32:00.675Z,96983.97
2023-01-04T20:34:29.000Z,96937.34
2023-01-04T20:36:57.429Z,96962.16
2023-01-04T20:39:26.051Z,96959.69
2023-01-04T20:42:11.699Z,96967.53
2023-01-04T20:44:40.294Z,96971.78
2023-01-04T20:47:09.886Z,96969.88
2023-01-04T20:49:38.147Z,96914.41
2023-01-04T20:52:06.495Z,96956.34
2023-01-04T20:54:34.708Z,96939.19
2023-01-04T20:57:02.891Z,96952.81
2023-01-04T20:59:31.318Z,96950.25
2023-01-04T21:01:59.620Z,96913.47
2023-01-04T21:04:45.912Z,96928.94
2023-01-04T21:07:14.854Z,96921.78
2023-01-04T21:09:43.046Z,96922.03
2023-01-04T21:12:11.205Z,96903.81
2023-01-04T21:14:40.099Z,96967.44
2023-01-04T21:17:08.259Z,96979.03
2023-01-04T21:19:36.478Z,96949.91
2023-01-04T21:22:06.026Z,96938.84
2023-01-04T21:24:34.319Z,96926.53
2023-01-04T21:27:02.588Z,96972.00
2023-01-04T21:29:31.080Z,96987.56
2023-01-04T21:31:59.610Z,96942.44
2023-01-04T21:34:28.217Z,96907.03
2023-01-04T21:36:56.434Z,96916.13
2023-01-04T21:39:26.047Z,96929.16
2023-01-04T21:41:54.895Z,96919.47
2023-01-04T21:44:23.106Z,96922.78
2023-01-04T21:46:51.742Z,96936.47
2023-01-04T21:49:20.161Z,96888.22
2023-01-04T21:51:48.270Z,96923.03
2023-01-04T21:54:16.816Z,96895.72
2023-01-04T21:56:46.833Z,96956.88
2023-01-04T21:59:15.105Z,96867.47
2023-01-04T22:01:43.508Z,96900.91
2023-01-04T22:04:11.818Z,96905.56
2023-01-04T22:06:41.542Z,96874.66
2023-01-04T22:09:09.751Z,96880.59
2023-01-04T22:11:37.954Z,96895.06
2023-01-04T22:14:07.554Z,96949.25
2023-01-04T22:16:35.832Z,96895.66
2023-01-04T22:19:04.138Z,96920.66
2023-01-04T22:21:32.337Z,96872.00
2023-01-04T22:24:01.076Z,96934.38
2023-01-04T22:26:29.338Z,96948.19
2023-01-04T22:28:57.670Z,96884.59
2023-01-04T22:31:27.273Z,96902.84
2023-01-04T22:33:55.508Z,96902.69
2023-01-04T22:36:24.228Z,96738.75
2023-01-04T22:38:53.566Z,96907.41
2023-01-04T22:41:23.879Z,96864.19
2023-01-04T22:43:56.738Z,96867.47
2023-01-04T22:46:27.902Z,96852.94
2023-01-04T22:48:56.432Z,96843.59
2023-01-04T22:51:27.407Z,96875.44
2023-01-04T22:53:57.118Z,96885.84
2023-01-04T22:56:26.034Z,96847.84
2023-01-04T22:58:56.856Z,96859.00
2023-01-04T23:01:29.530Z,96970.84
2023-01-04T23:03:59.570Z,96880.22
2023-01-04T23:06:29.419Z,96829.88
2023-01-04T23:08:59.544Z,96870.19
2023-01-04T23:11:29.585Z,96894.28
2023-01-04T23:13:58.632Z,96904.56
2023-01-04T23:16:32.764Z,96888.56
2023-01-04T23:19:02.028Z,96875.19
2023-01-04T23:21:30.549Z,96844.66
2023-01-04T23:23:59.025Z,96859.75
2023-01-04T23:26:29.623Z,96885.31
2023-01-04T23:28:58.629Z,96896.88
2023-01-04T23:31:32.446Z,96679.75
2023-01-04T23:34:04.300Z,96965.59
2023-01-04T23:36:35.787Z,96844.00
2023-01-04T23:39:07.525Z,96837.97
2023-01-04T23:41:46.112Z,96841.81
2023-01-04T23:44:17.366Z,96853.19
2023-01-04T23:46:47.489Z,96837.94
2023-01-04T23:49:15.713Z,96838.81
2023-01-04T23:51:43.899Z,96841.97
2023-01-04T23:54:12.429Z,96769.81
2023-01-04T23:56:41.536Z,96833.06
2023-01-04T23:59:10.426Z,96826.13
